createdAt,value
2023-03-04T00:02:42.258Z,84.29
2023-03-04T00:12:49.642Z,84.54
2023-03-04T00:22:55.619Z,84.35
2023-03-04T00:33:00.903Z,84.31
2023-03-04T00:43:08.290Z,84.34
2023-03-04T00:53:15.566Z,84.54
2023-03-04T01:03:23.197Z,84.66
2023-03-04T01:13:30.396Z,85.21
2023-03-04T01:23:37.611Z,85.24
2023-03-04T01:33:45.219Z,85.40
2023-03-04T01:43:53.066Z,85.87
2023-03-04T01:54:00.220Z,85.92
2023-03-04T02:04:08.144Z,85.92
2023-03-04T02:14:16.752Z,85.93
2023-03-04T02:24:30.238Z,86.15
2023-03-04T02:34:38.748Z,86.31
2023-03-04T02:44:49.492Z,86.46
2023-03-04T02:54:56.501Z,86.43
2023-03-04T03:05:04.003Z,86.40
2023-03-04T03:15:12.552Z,86.37
2023-03-04T03:25:18.511Z,86.20
2023-03-04T03:35:25.585Z,86.21
2023-03-04T03:45:32.903Z,86.24
2023-03-04T03:55:40.336Z,86.19
2023-03-04T04:05:47.471Z,86.41
2023-03-04T04:15:54.325Z,86.09
2023-03-04T04:26:01.609Z,86.09
2023-03-04T04:36:11.326Z,86.06
2023-03-04T04:46:19.243Z,85.93
2023-03-04T04:56:28.139Z,86.29
2023-03-04T05:06:35.234Z,86.01
2023-03-04T05:16:42.837Z,85.97
2023-03-04T05:26:50.106Z,85.76
2023-03-04T05:36:57.195Z,85.68
2023-03-04T05:47:04.326Z,85.69
2023-03-04T05:57:10.593Z,85.59
2023-03-04T06:07:17.756Z,85.46
2023-03-04T06:17:24.969Z,85.51
2023-03-04T06:27:32.271Z,85.33
2023-03-04T06:37:39.374Z,85.16
2023-03-04T06:47:46.848Z,85.13
2023-03-04T06:57:54.523Z,84.80
2023-03-04T07:08:01.596Z,84.52
2023-03-04T07:18:08.969Z,84.25
2023-03-04T07:28:16.212Z,84.10
2023-03-04T07:38:23.231Z,83.90
2023-03-04T07:48:30.683Z,83.86
2023-03-04T07:58:37.798Z,83.67
2023-03-04T08:08:45.438Z,83.59
2023-03-04T08:18:54.115Z,83.45
2023-03-04T08:29:05.764Z,83.32
2023-03-04T08:39:15.549Z,83.21
2023-03-04T08:49:22.660Z,83.07
2023-03-04T08:59:29.714Z,82.97
2023-03-04T09:09:37.458Z,82.93
2023-03-04T09:19:44.777Z,82.87
2023-03-04T09:29:51.455Z,82.94
2023-03-04T09:39:58.957Z,82.83
2023-03-04T09:50:05.475Z,82.84
2023-03-04T10:00:18.194Z,82.72
2023-03-04T10:10:23.414Z,82.55
2023-03-04T10:20:40.483Z,82.57
2023-03-04T10:30:46.521Z,82.77
2023-03-04T10:40:53.666Z,82.84
2023-03-04T10:51:10.757Z,82.89
2023-03-04T11:01:25.465Z,82.90
2023-03-04T11:11:31.253Z,83.00
2023-03-04T11:21:40.893Z,83.26
2023-03-04T11:31:46.168Z,83.61
2023-03-04T11:41:56.320Z,83.85
2023-03-04T11:52:01.125Z,84.18
2023-03-04T12:02:16.862Z,84.38
2023-03-04T12:12:25.552Z,84.75
2023-03-04T12:22:36.117Z,84.91
2023-03-04T12:32:41.064Z,84.86
2023-03-04T12:42:50.978Z,85.04
2023-03-04T12:52:56.122Z,85.08
2023-03-04T13:03:04.384Z,85.36
2023-03-04T13:13:26.087Z,85.25
2023-03-04T13:23:33.994Z,85.31
2023-03-04T13:33:46.484Z,85.38
2023-03-04T13:43:54.783Z,85.51
2023-03-04T13:54:08.319Z,85.56
2023-03-04T14:04:20.747Z,85.56
2023-03-04T14:14:30.041Z,85.48
2023-03-04T14:24:37.076Z,85.33
2023-03-04T14:34:44.484Z,85.26
2023-03-04T14:44:53.462Z,85.09
2023-03-04T14:55:02.163Z,84.75
2023-03-04T15:05:16.417Z,84.50
2023-03-04T15:15:43.843Z,84.14
2023-03-04T15:25:53.076Z,83.86
2023-03-04T15:36:00.771Z,83.62
2023-03-04T15:46:06.234Z,83.47
2023-03-04T15:56:16.809Z,83.45
2023-03-04T16:06:26.172Z,83.41
2023-03-04T16:16:33.408Z,83.27
2023-03-04T16:26:40.470Z,83.19
2023-03-04T16:36:47.974Z,83.28
2023-03-04T16:46:55.188Z,83.26
2023-03-04T16:57:02.736Z,83.30
2023-03-04T17:07:09.908Z,83.40
2023-03-04T17:17:18.518Z,83.43
2023-03-04T17:27:25.909Z,83.73
2023-03-04T17:37:33.176Z,83.84
2023-03-04T17:47:41.056Z,83.84
2023-03-04T17:57:48.323Z,84.04
2023-03-04T18:07:54.168Z,84.07
2023-03-04T18:18:01.233Z,84.06
2023-03-04T18:28:07.649Z,84.23
2023-03-04T18:38:14.815Z,84.47
2023-03-04T18:48:22.007Z,84.89
2023-03-04T18:58:28.476Z,85.11
2023-03-04T19:08:36.259Z,85.35
2023-03-04T19:18:43.868Z,85.45
2023-03-04T19:28:51.112Z,85.79
2023-03-04T19:38:59.083Z,86.09
2023-03-04T19:49:06.772Z,86.18
2023-03-04T19:59:14.186Z,86.24
2023-03-04T20:09:23.410Z,86.25
2023-03-04T20:19:31.778Z,86.78
2023-03-04T20:29:38.768Z,86.90
2023-03-04T20:39:46.681Z,86.82
2023-03-04T20:49:53.068Z,86.77
2023-03-04T21:00:00.407Z,86.64
2023-03-04T21:10:06.818Z,86.67
2023-03-04T21:20:17.075Z,86.20
2023-03-04T21:30:24.450Z,85.95
2023-03-04T21:40:31.510Z,85.43
2023-03-04T21:50:39.931Z,84.71
2023-03-04T22:00:49.750Z,84.06
2023-03-04T22:10:56.857Z,83.69
2023-03-04T22:21:01.793Z,83.50
2023-03-04T22:31:14.752Z,83.09
2023-03-04T22:41:22.784Z,82.44
2023-03-04T22:51:30.800Z,82.39
2023-03-04T23:01:38.398Z,82.20
2023-03-04T23:11:44.104Z,81.98
2023-03-04T23:21:51.250Z,81.75
2023-03-04T23:31:58.542Z,81.53
2023-03-04T23:42:05.944Z,81.16
2023-03-04T23:52:12.972Z,81.15
